sensor_id;sensor_type;location;lat;lon;timestamp;temperature;humidity
53599;DHT22;39485;45.702;11.364;2023-04-24T00:00:23;14.10;99.90
53599;DHT22;39485;45.702;11.364;2023-04-24T00:02:49;14.10;99.90
53599;DHT22;39485;45.702;11.364;2023-04-24T00:05:16;14.10;99.90
53599;DHT22;39485;45.702;11.364;2023-04-24T00:07:43;14.10;99.90
53599;DHT22;39485;45.702;11.364;2023-04-24T00:10:10;14.10;99.90
53599;DHT22;39485;45.702;11.364;2023-04-24T00:12:36;14.10;99.90
53599;DHT22;39485;45.702;11.364;2023-04-24T00:15:02;14.10;99.90
53599;DHT22;39485;45.702;11.364;2023-04-24T00:17:28;14.10;99.90
53599;DHT22;39485;45.702;11.364;2023-04-24T00:19:54;14.10;99.90
53599;DHT22;39485;45.702;11.364;2023-04-24T00:22:30;14.10;99.90
53599;DHT22;39485;45.702;11.364;2023-04-24T00:25:14;14.00;99.90
53599;DHT22;39485;45.702;11.364;2023-04-24T00:27:40;14.00;99.90
53599;DHT22;39485;45.702;11.364;2023-04-24T00:30:06;14.00;99.90
53599;DHT22;39485;45.702;11.364;2023-04-24T00:32:32;14.00;99.90
53599;DHT22;39485;45.702;11.364;2023-04-24T00:34:58;14.00;99.90
53599;DHT22;39485;45.702;11.364;2023-04-24T00:37:23;14.00;99.90
53599;DHT22;39485;45.702;11.364;2023-04-24T00:39:49;14.00;99.90
53599;DHT22;39485;45.702;11.364;2023-04-24T00:42:15;14.00;99.90
53599;DHT22;39485;45.702;11.364;2023-04-24T00:44:41;14.00;99.90
53599;DHT22;39485;45.702;11.364;2023-04-24T00:47:07;14.00;99.90
53599;DHT22;39485;45.702;11.364;2023-04-24T00:49:35;14.00;99.90
53599;DHT22;39485;45.702;11.364;2023-04-24T00:52:01;14.00;99.90
53599;DHT22;39485;45.702;11.364;2023-04-24T00:54:27;14.00;99.90
53599;DHT22;39485;45.702;11.364;2023-04-24T00:56:53;14.00;99.90
53599;DHT22;39485;45.702;11.364;2023-04-24T00:59:18;14.10;99.90
53599;DHT22;39485;45.702;11.364;2023-04-24T01:01:45;14.10;99.90
53599;DHT22;39485;45.702;11.364;2023-04-24T01:04:12;14.00;99.90
53599;DHT22;39485;45.702;11.364;2023-04-24T01:06:41;14.00;99.90
53599;DHT22;39485;45.702;11.364;2023-04-24T01:09:09;14.00;99.90
53599;DHT22;39485;45.702;11.364;2023-04-24T01:11:37;14.00;99.90
53599;DHT22;39485;45.702;11.364;2023-04-24T01:14:02;14.00;99.90
53599;DHT22;39485;45.702;11.364;2023-04-24T01:16:29;14.00;99.90
53599;DHT22;39485;45.702;11.364;2023-04-24T01:18:54;14.00;99.90
53599;DHT22;39485;45.702;11.364;2023-04-24T01:21:21;14.00;99.90
53599;DHT22;39485;45.702;11.364;2023-04-24T01:23:49;14.00;99.90
53599;DHT22;39485;45.702;11.364;2023-04-24T01:26:17;13.90;99.90
53599;DHT22;39485;45.702;11.364;2023-04-24T01:28:42;13.90;99.90
53599;DHT22;39485;45.702;11.364;2023-04-24T01:31:08;13.90;99.90
53599;DHT22;39485;45.702;11.364;2023-04-24T01:33:34;13.80;99.90
53599;DHT22;39485;45.702;11.364;2023-04-24T01:36:00;13.80;99.90
53599;DHT22;39485;45.702;11.364;2023-04-24T01:38:26;13.80;99.90
53599;DHT22;39485;45.702;11.364;2023-04-24T01:40:52;13.80;99.90
53599;DHT22;39485;45.702;11.364;2023-04-24T01:43:18;13.80;99.90
53599;DHT22;39485;45.702;11.364;2023-04-24T01:45:44;13.80;99.90
53599;DHT22;39485;45.702;11.364;2023-04-24T01:48:11;13.80;99.90
53599;DHT22;39485;45.702;11.364;2023-04-24T01:50:45;13.70;99.90
53599;DHT22;39485;45.702;11.364;2023-04-24T01:53:10;13.80;99.90
53599;DHT22;39485;45.702;11.364;2023-04-24T01:55:36;13.80;99.90
53599;DHT22;39485;45.702;11.364;2023-04-24T01:58:02;13.80;99.90
53599;DHT22;39485;45.702;11.364;2023-04-24T02:00:28;13.70;99.90
53599;DHT22;39485;45.702;11.364;2023-04-24T02:02:54;13.70;99.90
53599;DHT22;39485;45.702;11.364;2023-04-24T02:05:19;13.70;99.90
53599;DHT22;39485;45.702;11.364;2023-04-24T02:07:45;13.70;99.90
53599;DHT22;39485;45.702;11.364;2023-04-24T02:10:11;13.70;99.90
53599;DHT22;39485;45.702;11.364;2023-04-24T02:12:37;13.70;99.90
53599;DHT22;39485;45.702;11.364;2023-04-24T02:15:03;13.70;99.90
53599;DHT22;39485;45.702;11.364;2023-04-24T02:17:29;13.70;99.90
53599;DHT22;39485;45.702;11.364;2023-04-24T02:19:56;13.80;99.90
53599;DHT22;39485;45.702;11.364;2023-04-24T02:22:21;13.80;99.90
53599;DHT22;39485;45.702;11.364;2023-04-24T02:24:47;13.80;99.90
53599;DHT22;39485;45.702;11.364;2023-04-24T02:27:13;13.70;99.90
53599;DHT22;39485;45.702;11.364;2023-04-24T02:29:39;13.80;99.90
53599;DHT22;39485;45.702;11.364;2023-04-24T02:32:04;13.70;99.90
53599;DHT22;39485;45.702;11.364;2023-04-24T02:34:30;13.70;99.90
53599;DHT22;39485;45.702;11.364;2023-04-24T02:36:56;13.70;99.90
53599;DHT22;39485;45.702;11.364;2023-04-24T02:39:21;13.70;99.90
53599;DHT22;39485;45.702;11.364;2023-04-24T02:44:22;13.70;99.90
53599;DHT22;39485;45.702;11.364;2023-04-24T02:46:48;13.70;99.90
53599;DHT22;39485;45.702;11.364;2023-04-24T02:49:14;13.60;99.90
53599;DHT22;39485;45.702;11.364;2023-04-24T02:51:40;13.70;99.90
53599;DHT22;39485;45.702;11.364;2023-04-24T02:54:07;13.60;99.90
53599;DHT22;39485;45.702;11.364;2023-04-24T02:56:34;13.60;99.90
53599;DHT22;39485;45.702;11.364;2023-04-24T02:59:00;13.60;99.90
53599;DHT22;39485;45.702;11.364;2023-04-24T03:01:25;13.60;99.90
53599;DHT22;39485;45.702;11.364;2023-04-24T03:03:51;13.60;99.90
53599;DHT22;39485;45.702;11.364;2023-04-24T03:06:17;13.60;99.90
53599;DHT22;39485;45.702;11.364;2023-04-24T03:08:42;13.60;99.90
53599;DHT22;39485;45.702;11.364;2023-04-24T03:11:08;13.50;99.90
53599;DHT22;39485;45.702;11.364;2023-04-24T03:13:34;13.50;99.90
53599;DHT22;39485;45.702;11.364;2023-04-24T03:16:00;13.50;99.90
53599;DHT22;39485;45.702;11.364;2023-04-24T03:18:25;13.50;99.90
53599;DHT22;39485;45.702;11.364;2023-04-24T03:20:51;13.40;99.90
53599;DHT22;39485;45.702;11.364;2023-04-24T03:23:17;13.40;99.90
53599;DHT22;39485;45.702;11.364;2023-04-24T03:25:42;13.30;99.90
53599;DHT22;39485;45.702;11.364;2023-04-24T03:28:08;13.30;99.90
53599;DHT22;39485;45.702;11.364;2023-04-24T03:30:34;13.30;99.90
53599;DHT22;39485;45.702;11.364;2023-04-24T03:33:00;13.20;99.90
53599;DHT22;39485;45.702;11.364;2023-04-24T03:35:26;13.20;99.90
53599;DHT22;39485;45.702;11.364;2023-04-24T03:37:51;13.20;99.90
53599;DHT22;39485;45.702;11.364;2023-04-24T03:40:17;13.20;99.90
53599;DHT22;39485;45.702;11.364;2023-04-24T03:42:43;13.20;99.90
53599;DHT22;39485;45.702;11.364;2023-04-24T03:45:09;13.10;99.90
53599;DHT22;39485;45.702;11.364;2023-04-24T03:47:35;13.10;99.90
53599;DHT22;39485;45.702;11.364;2023-04-24T03:50:00;13.10;99.90
53599;DHT22;39485;45.702;11.364;2023-04-24T03:52:26;13.10;99.90
53599;DHT22;39485;45.702;11.364;2023-04-24T03:54:52;13.00;99.90
53599;DHT22;39485;45.702;11.364;2023-04-24T03:57:17;13.00;99.90
53599;DHT22;39485;45.702;11.364;2023-04-24T03:59:43;13.00;99.90
53599;DHT22;39485;45.702;11.364;2023-04-24T04:02:15;13.00;99.90
53599;DHT22;39485;45.702;11.364;2023-04-24T04:04:41;12.90;99.90
53599;DHT22;39485;45.702;11.364;2023-04-24T04:07:06;12.90;99.90
53599;DHT22;39485;45.702;11.364;2023-04-24T04:09:33;12.90;99.90
53599;DHT22;39485;45.702;11.364;2023-04-24T04:11:59;12.90;99.90
53599;DHT22;39485;45.702;11.364;2023-04-24T04:14:26;12.90;99.90
53599;DHT22;39485;45.702;11.364;2023-04-24T04:16:52;12.80;99.90
53599;DHT22;39485;45.702;11.364;2023-04-24T04:19:17;12.80;99.90
53599;DHT22;39485;45.702;11.364;2023-04-24T04:21:43;12.80;99.90
53599;DHT22;39485;45.702;11.364;2023-04-24T04:24:11;12.70;99.90
53599;DHT22;39485;45.702;11.364;2023-04-24T04:26:37;12.70;99.90
53599;DHT22;39485;45.702;11.364;2023-04-24T04:29:03;12.70;99.90
53599;DHT22;39485;45.702;11.364;2023-04-24T04:31:29;12.70;99.90
53599;DHT22;39485;45.702;11.364;2023-04-24T04:33:56;12.70;99.90
53599;DHT22;39485;45.702;11.364;2023-04-24T04:36:21;12.70;99.90
53599;DHT22;39485;45.702;11.364;2023-04-24T04:38:47;12.70;99.90
53599;DHT22;39485;45.702;11.364;2023-04-24T04:41:13;12.70;99.90
53599;DHT22;39485;45.702;11.364;2023-04-24T04:43:39;12.60;99.90
53599;DHT22;39485;45.702;11.364;2023-04-24T04:46:06;12.60;99.90
53599;DHT22;39485;45.702;11.364;2023-04-24T04:48:33;12.60;99.90
53599;DHT22;39485;45.702;11.364;2023-04-24T04:50:59;12.60;99.90
53599;DHT22;39485;45.702;11.364;2023-04-24T04:53:24;12.60;99.90
53599;DHT22;39485;45.702;11.364;2023-04-24T04:55:51;12.60;99.90
53599;DHT22;39485;45.702;11.364;2023-04-24T04:58:17;12.50;99.90
53599;DHT22;39485;45.702;11.364;2023-04-24T05:00:42;12.50;99.90
53599;DHT22;39485;45.702;11.364;2023-04-24T05:03:08;12.50;99.90
53599;DHT22;39485;45.702;11.364;2023-04-24T05:05:34;12.50;99.90
53599;DHT22;39485;45.702;11.364;2023-04-24T05:07:59;12.40;99.90
53599;DHT22;39485;45.702;11.364;2023-04-24T05:10:25;12.40;99.90
53599;DHT22;39485;45.702;11.364;2023-04-24T05:12:51;12.30;99.90
53599;DHT22;39485;45.702;11.364;2023-04-24T05:15:16;12.30;99.90
53599;DHT22;39485;45.702;11.364;2023-04-24T05:17:42;12.30;99.90
53599;DHT22;39485;45.702;11.364;2023-04-24T05:20:08;12.30;99.90
53599;DHT22;39485;45.702;11.364;2023-04-24T05:22:35;12.30;99.90
53599;DHT22;39485;45.702;11.364;2023-04-24T05:25:01;12.30;99.90
53599;DHT22;39485;45.702;11.364;2023-04-24T05:27:27;12.30;99.90
53599;DHT22;39485;45.702;11.364;2023-04-24T05:29:53;12.30;99.90
53599;DHT22;39485;45.702;11.364;2023-04-24T05:32:19;12.30;99.90
53599;DHT22;39485;45.702;11.364;2023-04-24T05:34:45;12.30;99.90
53599;DHT22;39485;45.702;11.364;2023-04-24T05:37:10;12.30;99.90
53599;DHT22;39485;45.702;11.364;2023-04-24T05:39:36;12.30;99.90
53599;DHT22;39485;45.702;11.364;2023-04-24T05:42:03;12.20;99.90
53599;DHT22;39485;45.702;11.364;2023-04-24T05:44:30;12.20;99.90
53599;DHT22;39485;45.702;11.364;2023-04-24T05:46:56;12.20;99.90
53599;DHT22;39485;45.702;11.364;2023-04-24T05:49:22;12.20;99.90
53599;DHT22;39485;45.702;11.364;2023-04-24T05:51:48;12.20;99.90
53599;DHT22;39485;45.702;11.364;2023-04-24T05:54:13;12.20;99.90
53599;DHT22;39485;45.702;11.364;2023-04-24T05:56:40;12.10;99.90
53599;DHT22;39485;45.702;11.364;2023-04-24T05:59:06;12.20;99.90
53599;DHT22;39485;45.702;11.364;2023-04-24T06:01:31;12.20;99.90
53599;DHT22;39485;45.702;11.364;2023-04-24T06:03:58;12.10;99.90
53599;DHT22;39485;45.702;11.364;2023-04-24T06:06:24;12.10;99.90
53599;DHT22;39485;45.702;11.364;2023-04-24T06:08:49;12.10;99.90
53599;DHT22;39485;45.702;11.364;2023-04-24T06:11:15;12.10;99.90
53599;DHT22;39485;45.702;11.364;2023-04-24T06:13:41;12.10;99.90
53599;DHT22;39485;45.702;11.364;2023-04-24T06:16:07;12.10;99.90
53599;DHT22;39485;45.702;11.364;2023-04-24T06:18:33;12.00;99.90
53599;DHT22;39485;45.702;11.364;2023-04-24T06:20:59;12.00;99.90
53599;DHT22;39485;45.702;11.364;2023-04-24T06:23:24;12.00;99.90
53599;DHT22;39485;45.702;11.364;2023-04-24T06:25:51;12.00;99.90
53599;DHT22;39485;45.702;11.364;2023-04-24T06:28:17;12.00;99.90
53599;DHT22;39485;45.702;11.364;2023-04-24T06:30:42;11.90;99.90
53599;DHT22;39485;45.702;11.364;2023-04-24T06:33:09;11.80;99.90
53599;DHT22;39485;45.702;11.364;2023-04-24T06:35:35;11.60;99.90
53599;DHT22;39485;45.702;11.364;2023-04-24T06:38:01;11.60;99.90
53599;DHT22;39485;45.702;11.364;2023-04-24T06:40:27;11.50;99.90
53599;DHT22;39485;45.702;11.364;2023-04-24T06:42:52;11.50;99.90
53599;DHT22;39485;45.702;11.364;2023-04-24T06:45:18;11.50;99.90
53599;DHT22;39485;45.702;11.364;2023-04-24T06:47:44;11.40;99.90
53599;DHT22;39485;45.702;11.364;2023-04-24T06:50:10;11.40;99.90
53599;DHT22;39485;45.702;11.364;2023-04-24T06:52:36;11.40;99.90
53599;DHT22;39485;45.702;11.364;2023-04-24T06:55:03;11.40;99.90
53599;DHT22;39485;45.702;11.364;2023-04-24T06:57:29;11.40;99.90
53599;DHT22;39485;45.702;11.364;2023-04-24T06:59:55;11.30;99.90
53599;DHT22;39485;45.702;11.364;2023-04-24T07:02:21;11.30;99.90
53599;DHT22;39485;45.702;11.364;2023-04-24T07:04:47;11.30;99.90
53599;DHT22;39485;45.702;11.364;2023-04-24T07:07:15;11.30;99.90
53599;DHT22;39485;45.702;11.364;2023-04-24T07:09:42;11.40;99.90
53599;DHT22;39485;45.702;11.364;2023-04-24T07:12:11;11.40;99.90
53599;DHT22;39485;45.702;11.364;2023-04-24T07:14:37;11.50;99.90
53599;DHT22;39485;45.702;11.364;2023-04-24T07:17:04;11.50;99.90
53599;DHT22;39485;45.702;11.364;2023-04-24T07:19:30;11.60;99.90
53599;DHT22;39485;45.702;11.364;2023-04-24T07:21:56;11.50;99.90
53599;DHT22;39485;45.702;11.364;2023-04-24T07:24:24;11.60;99.90
53599;DHT22;39485;45.702;11.364;2023-04-24T07:26:51;11.60;99.90
53599;DHT22;39485;45.702;11.364;2023-04-24T07:29:17;11.60;99.90
53599;DHT22;39485;45.702;11.364;2023-04-24T07:31:43;11.60;99.90
53599;DHT22;39485;45.702;11.364;2023-04-24T07:34:08;11.70;99.90
53599;DHT22;39485;45.702;11.364;2023-04-24T07:36:34;11.80;99.90
53599;DHT22;39485;45.702;11.364;2023-04-24T07:39:00;11.90;99.90
53599;DHT22;39485;45.702;11.364;2023-04-24T07:41:25;11.90;99.90
53599;DHT22;39485;45.702;11.364;2023-04-24T07:43:53;12.00;99.90
53599;DHT22;39485;45.702;11.364;2023-04-24T07:46:19;12.10;99.90
53599;DHT22;39485;45.702;11.364;2023-04-24T07:48:45;12.10;99.90
53599;DHT22;39485;45.702;11.364;2023-04-24T07:51:14;12.20;99.90
53599;DHT22;39485;45.702;11.364;2023-04-24T07:53:41;12.20;99.90
53599;DHT22;39485;45.702;11.364;2023-04-24T07:56:07;12.40;99.90
53599;DHT22;39485;45.702;11.364;2023-04-24T07:58:32;12.50;99.90
53599;DHT22;39485;45.702;11.364;2023-04-24T08:00:58;12.60;99.90
53599;DHT22;39485;45.702;11.364;2023-04-24T08:03:24;12.60;99.90
53599;DHT22;39485;45.702;11.364;2023-04-24T08:05:50;12.80;99.90
53599;DHT22;39485;45.702;11.364;2023-04-24T08:08:16;12.90;99.90
53599;DHT22;39485;45.702;11.364;2023-04-24T08:10:42;13.00;99.90
53599;DHT22;39485;45.702;11.364;2023-04-24T08:13:08;13.00;99.90
53599;DHT22;39485;45.702;11.364;2023-04-24T08:15:34;13.10;99.90
53599;DHT22;39485;45.702;11.364;2023-04-24T08:18:00;13.10;99.90
53599;DHT22;39485;45.702;11.364;2023-04-24T08:20:26;13.20;99.90
53599;DHT22;39485;45.702;11.364;2023-04-24T08:22:51;13.30;99.90
53599;DHT22;39485;45.702;11.364;2023-04-24T08:25:17;13.40;99.90
53599;DHT22;39485;45.702;11.364;2023-04-24T08:27:44;13.50;99.90
53599;DHT22;39485;45.702;11.364;2023-04-24T08:30:10;13.60;99.90
53599;DHT22;39485;45.702;11.364;2023-04-24T08:32:36;13.80;99.90
53599;DHT22;39485;45.702;11.364;2023-04-24T08:35:02;13.90;99.90
53599;DHT22;39485;45.702;11.364;2023-04-24T08:37:29;14.10;99.90
53599;DHT22;39485;45.702;11.364;2023-04-24T08:39:54;14.20;99.90
53599;DHT22;39485;45.702;11.364;2023-04-24T08:42:21;14.30;99.90
53599;DHT22;39485;45.702;11.364;2023-04-24T08:44:49;14.40;99.90
53599;DHT22;39485;45.702;11.364;2023-04-24T08:47:15;14.50;99.90
53599;DHT22;39485;45.702;11.364;2023-04-24T08:49:41;14.60;99.90
53599;DHT22;39485;45.702;11.364;2023-04-24T08:52:06;14.70;99.90
53599;DHT22;39485;45.702;11.364;2023-04-24T08:54:36;14.70;99.90
53599;DHT22;39485;45.702;11.364;2023-04-24T08:57:02;14.70;99.90
53599;DHT22;39485;45.702;11.364;2023-04-24T08:59:30;14.80;99.90
53599;DHT22;39485;45.702;11.364;2023-04-24T09:01:56;14.70;99.90
53599;DHT22;39485;45.702;11.364;2023-04-24T09:04:23;14.70;99.90
53599;DHT22;39485;45.702;11.364;2023-04-24T09:06:56;14.70;99.90
53599;DHT22;39485;45.702;11.364;2023-04-24T09:09:23;14.70;99.90
53599;DHT22;39485;45.702;11.364;2023-04-24T09:11:50;14.70;99.90
53599;DHT22;39485;45.702;11.364;2023-04-24T09:14:16;14.70;99.90
53599;DHT22;39485;45.702;11.364;2023-04-24T09:16:43;14.80;99.90
53599;DHT22;39485;45.702;11.364;2023-04-24T09:19:08;14.80;99.90
53599;DHT22;39485;45.702;11.364;2023-04-24T09:21:35;14.90;99.90
53599;DHT22;39485;45.702;11.364;2023-04-24T09:24:16;14.90;99.90
53599;DHT22;39485;45.702;11.364;2023-04-24T09:26:49;15.00;99.90
53599;DHT22;39485;45.702;11.364;2023-04-24T09:29:21;15.00;99.90
53599;DHT22;39485;45.702;11.364;2023-04-24T09:31:46;15.00;99.90
53599;DHT22;39485;45.702;11.364;2023-04-24T09:34:12;15.10;99.90
53599;DHT22;39485;45.702;11.364;2023-04-24T09:36:41;15.10;99.90
53599;DHT22;39485;45.702;11.364;2023-04-24T09:39:09;15.10;99.90
53599;DHT22;39485;45.702;11.364;2023-04-24T09:41:48;15.10;99.90
53599;DHT22;39485;45.702;11.364;2023-04-24T09:44:16;15.20;99.90
53599;DHT22;39485;45.702;11.364;2023-04-24T09:46:44;15.20;99.90
53599;DHT22;39485;45.702;11.364;2023-04-24T09:49:14;15.20;99.90
53599;DHT22;39485;45.702;11.364;2023-04-24T09:51:41;15.30;99.90
53599;DHT22;39485;45.702;11.364;2023-04-24T09:54:33;15.30;99.90
53599;DHT22;39485;45.702;11.364;2023-04-24T09:56:59;15.40;99.90
53599;DHT22;39485;45.702;11.364;2023-04-24T09:59:28;15.40;99.90
53599;DHT22;39485;45.702;11.364;2023-04-24T10:01:55;15.40;99.90
53599;DHT22;39485;45.702;11.364;2023-04-24T10:04:26;15.50;99.90
53599;DHT22;39485;45.702;11.364;2023-04-24T10:06:53;15.60;99.90
53599;DHT22;39485;45.702;11.364;2023-04-24T10:09:21;15.60;99.90
53599;DHT22;39485;45.702;11.364;2023-04-24T10:11:49;15.70;99.90
53599;DHT22;39485;45.702;11.364;2023-04-24T10:14:22;15.80;99.90
53599;DHT22;39485;45.702;11.364;2023-04-24T10:16:49;15.90;99.90
53599;DHT22;39485;45.702;11.364;2023-04-24T10:19:16;16.00;99.90
53599;DHT22;39485;45.702;11.364;2023-04-24T10:21:44;16.10;99.90
53599;DHT22;39485;45.702;11.364;2023-04-24T10:24:17;16.10;99.90
53599;DHT22;39485;45.702;11.364;2023-04-24T10:26:44;16.20;99.90
53599;DHT22;39485;45.702;11.364;2023-04-24T10:29:11;16.20;99.90
53599;DHT22;39485;45.702;11.364;2023-04-24T10:31:38;16.30;99.90
53599;DHT22;39485;45.702;11.364;2023-04-24T10:34:08;16.30;99.90
53599;DHT22;39485;45.702;11.364;2023-04-24T10:36:36;16.40;99.90
53599;DHT22;39485;45.702;11.364;2023-04-24T10:39:08;16.40;99.90
53599;DHT22;39485;45.702;11.364;2023-04-24T10:41:37;16.50;99.90
53599;DHT22;39485;45.702;11.364;2023-04-24T10:44:08;16.60;99.90
53599;DHT22;39485;45.702;11.364;2023-04-24T10:46:35;16.60;99.90
53599;DHT22;39485;45.702;11.364;2023-04-24T10:49:04;16.60;99.90
53599;DHT22;39485;45.702;11.364;2023-04-24T10:54:27;16.70;99.90
53599;DHT22;39485;45.702;11.364;2023-04-24T10:56:53;16.80;99.90
53599;DHT22;39485;45.702;11.364;2023-04-24T10:59:34;16.80;99.90
53599;DHT22;39485;45.702;11.364;2023-04-24T11:02:00;16.90;99.90
53599;DHT22;39485;45.702;11.364;2023-04-24T11:04:30;16.90;99.90
53599;DHT22;39485;45.702;11.364;2023-04-24T11:06:57;17.00;99.90
53599;DHT22;39485;45.702;11.364;2023-04-24T11:09:34;17.10;99.90
53599;DHT22;39485;45.702;11.364;2023-04-24T11:12:07;17.20;99.90
53599;DHT22;39485;45.702;11.364;2023-04-24T11:17:35;17.40;99.90
53599;DHT22;39485;45.702;11.364;2023-04-24T11:20:11;17.50;99.90
53599;DHT22;39485;45.702;11.364;2023-04-24T11:22:38;17.50;99.90
53599;DHT22;39485;45.702;11.364;2023-04-24T11:25:08;17.50;99.90
53599;DHT22;39485;45.702;11.364;2023-04-24T11:27:41;17.60;99.90
53599;DHT22;39485;45.702;11.364;2023-04-24T11:30:08;17.70;99.90
53599;DHT22;39485;45.702;11.364;2023-04-24T11:35:00;17.90;99.90
53599;DHT22;39485;45.702;11.364;2023-04-24T11:39:59;18.00;99.90
53599;DHT22;39485;45.702;11.364;2023-04-24T11:42:25;18.00;99.90
53599;DHT22;39485;45.702;11.364;2023-04-24T11:44:55;17.90;99.90
53599;DHT22;39485;45.702;11.364;2023-04-24T11:47:28;17.80;99.90
53599;DHT22;39485;45.702;11.364;2023-04-24T11:49:54;17.70;99.90
53599;DHT22;39485;45.702;11.364;2023-04-24T11:52:20;17.60;99.90
53599;DHT22;39485;45.702;11.364;2023-04-24T11:54:51;17.60;99.90
53599;DHT22;39485;45.702;11.364;2023-04-24T11:57:19;17.60;99.90
53599;DHT22;39485;45.702;11.364;2023-04-24T11:59:46;17.60;99.90
53599;DHT22;39485;45.702;11.364;2023-04-24T12:02:23;17.60;99.90
53599;DHT22;39485;45.702;11.364;2023-04-24T12:04:49;17.70;99.90
53599;DHT22;39485;45.702;11.364;2023-04-24T12:07:14;17.80;99.90
53599;DHT22;39485;45.702;11.364;2023-04-24T12:09:48;17.90;99.90
53599;DHT22;39485;45.702;11.364;2023-04-24T12:12:16;17.90;99.90
53599;DHT22;39485;45.702;11.364;2023-04-24T12:17:11;18.10;99.90
53599;DHT22;39485;45.702;11.364;2023-04-24T12:19:36;18.20;99.90
53599;DHT22;39485;45.702;11.364;2023-04-24T12:22:05;18.20;99.90
53599;DHT22;39485;45.702;11.364;2023-04-24T12:24:31;18.30;99.90
53599;DHT22;39485;45.702;11.364;2023-04-24T12:26:57;18.30;99.90
53599;DHT22;39485;45.702;11.364;2023-04-24T12:29:24;18.30;99.90
53599;DHT22;39485;45.702;11.364;2023-04-24T12:31:51;18.40;99.90
53599;DHT22;39485;45.702;11.364;2023-04-24T12:34:25;18.50;99.90
53599;DHT22;39485;45.702;11.364;2023-04-24T12:36:51;18.50;99.90
53599;DHT22;39485;45.702;11.364;2023-04-24T12:39:18;18.60;99.90
53599;DHT22;39485;45.702;11.364;2023-04-24T12:41:54;18.70;99.90
53599;DHT22;39485;45.702;11.364;2023-04-24T12:44:31;18.70;99.90
53599;DHT22;39485;45.702;11.364;2023-04-24T12:47:00;18.70;99.90
53599;DHT22;39485;45.702;11.364;2023-04-24T12:49:25;18.70;99.90
53599;DHT22;39485;45.702;11.364;2023-04-24T12:51:51;18.70;99.90
53599;DHT22;39485;45.702;11.364;2023-04-24T12:54:17;18.70;99.90
53599;DHT22;39485;45.702;11.364;2023-04-24T12:56:43;18.60;99.90
53599;DHT22;39485;45.702;11.364;2023-04-24T12:59:08;18.60;99.90
53599;DHT22;39485;45.702;11.364;2023-04-24T13:01:34;18.60;99.90
53599;DHT22;39485;45.702;11.364;2023-04-24T13:04:00;18.50;99.90
53599;DHT22;39485;45.702;11.364;2023-04-24T13:06:25;18.50;99.90
53599;DHT22;39485;45.702;11.364;2023-04-24T13:08:52;18.60;99.90
53599;DHT22;39485;45.702;11.364;2023-04-24T13:11:17;18.60;99.90
53599;DHT22;39485;45.702;11.364;2023-04-24T13:13:43;18.70;99.90
53599;DHT22;39485;45.702;11.364;2023-04-24T13:16:09;18.80;99.90
53599;DHT22;39485;45.702;11.364;2023-04-24T13:18:35;18.80;99.90
53599;DHT22;39485;45.702;11.364;2023-04-24T13:21:00;18.80;99.90
53599;DHT22;39485;45.702;11.364;2023-04-24T13:23:26;18.80;99.90
53599;DHT22;39485;45.702;11.364;2023-04-24T13:25:53;18.80;99.90
53599;DHT22;39485;45.702;11.364;2023-04-24T13:28:20;18.90;99.90
53599;DHT22;39485;45.702;11.364;2023-04-24T13:30:46;18.80;99.90
53599;DHT22;39485;45.702;11.364;2023-04-24T13:33:12;18.80;99.90
53599;DHT22;39485;45.702;11.364;2023-04-24T13:35:37;18.70;99.90
53599;DHT22;39485;45.702;11.364;2023-04-24T13:38:03;18.60;99.90
53599;DHT22;39485;45.702;11.364;2023-04-24T13:40:31;18.60;99.90
53599;DHT22;39485;45.702;11.364;2023-04-24T13:42:56;18.50;99.90
53599;DHT22;39485;45.702;11.364;2023-04-24T13:45:22;18.40;99.90
53599;DHT22;39485;45.702;11.364;2023-04-24T13:47:48;18.40;99.90
53599;DHT22;39485;45.702;11.364;2023-04-24T13:50:13;18.40;99.90
53599;DHT22;39485;45.702;11.364;2023-04-24T13:52:40;18.40;99.90
53599;DHT22;39485;45.702;11.364;2023-04-24T13:55:06;18.50;99.90
53599;DHT22;39485;45.702;11.364;2023-04-24T13:57:32;18.50;99.90
53599;DHT22;39485;45.702;11.364;2023-04-24T13:59:58;18.60;99.90
53599;DHT22;39485;45.702;11.364;2023-04-24T14:02:27;18.60;99.90
53599;DHT22;39485;45.702;11.364;2023-04-24T14:04:53;18.60;99.90
53599;DHT22;39485;45.702;11.364;2023-04-24T14:07:19;18.60;99.90
53599;DHT22;39485;45.702;11.364;2023-04-24T14:09:44;18.60;99.90
53599;DHT22;39485;45.702;11.364;2023-04-24T14:12:10;18.50;99.90
53599;DHT22;39485;45.702;11.364;2023-04-24T14:14:36;18.50;99.90
53599;DHT22;39485;45.702;11.364;2023-04-24T14:17:01;18.50;99.90
53599;DHT22;39485;45.702;11.364;2023-04-24T14:19:27;18.50;99.90
